createdAt,value
2022-11-17T00:00:01.443Z,2.47
2022-11-17T00:05:03.283Z,2.50
2022-11-17T00:10:05.094Z,2.30
2022-11-17T00:15:06.676Z,2.40
2022-11-17T00:20:29.354Z,2.75
2022-11-17T00:25:30.656Z,2.15
2022-11-17T00:30:50.598Z,2.08
2022-11-17T00:35:54.270Z,2.50
2022-11-17T00:40:55.533Z,2.20
2022-11-17T00:45:56.804Z,2.33
2022-11-17T00:51:02.751Z,2.20
2022-11-17T00:56:04.160Z,1.90
2022-11-17T01:01:05.873Z,2.00
2022-11-17T01:06:10.175Z,1.77
2022-11-17T01:11:19.383Z,2.08
2022-11-17T01:16:21.311Z,2.65
2022-11-17T01:21:24.984Z,2.00
2022-11-17T01:26:29.074Z,2.00
2022-11-17T01:31:36.199Z,1.83
2022-11-17T01:36:59.056Z,2.20
2022-11-17T01:42:11.681Z,1.65
2022-11-17T01:47:38.265Z,1.60
2022-11-17T01:52:40.969Z,1.90
2022-11-17T01:57:49.804Z,1.98
2022-11-17T02:02:51.837Z,2.45
2022-11-17T02:07:55.048Z,2.20
2022-11-17T02:12:56.561Z,2.08
2022-11-17T02:17:59.018Z,2.28
2022-11-17T02:23:33.499Z,2.13
2022-11-17T02:28:40.207Z,1.85
2022-11-17T02:33:41.402Z,1.87
2022-11-17T02:38:57.221Z,1.88
2022-11-17T02:44:21.634Z,1.50
2022-11-17T02:49:36.473Z,1.77
2022-11-17T02:54:37.888Z,1.50
2022-11-17T02:59:46.013Z,1.70
2022-11-17T03:05:14.588Z,1.88
2022-11-17T03:10:43.836Z,1.60
2022-11-17T03:15:57.842Z,1.65
2022-11-17T03:21:05.097Z,1.80
2022-11-17T03:26:12.236Z,2.15
2022-11-17T03:31:15.043Z,1.70
2022-11-17T03:36:22.210Z,1.98
2022-11-17T03:41:25.623Z,1.50
2022-11-17T03:46:29.407Z,1.80
2022-11-17T03:51:33.050Z,1.80
2022-11-17T03:56:49.052Z,2.10
2022-11-17T04:01:51.073Z,1.88
2022-11-17T04:06:55.529Z,1.58
2022-11-17T04:17:16.704Z,2.00
2022-11-17T04:22:17.995Z,1.63
2022-11-17T04:27:38.160Z,2.13
2022-11-17T04:32:39.412Z,1.70
2022-11-17T04:37:40.672Z,1.30
2022-11-17T04:42:41.944Z,1.30
2022-11-17T04:47:43.217Z,1.27
2022-11-17T04:52:44.452Z,1.67
2022-11-17T04:57:45.708Z,1.63
2022-11-17T05:02:46.979Z,1.00
2022-11-17T05:07:48.211Z,1.15
2022-11-17T05:13:08.758Z,1.00
2022-11-17T05:18:10.031Z,0.95
2022-11-17T05:23:29.697Z,0.90
2022-11-17T05:28:31.344Z,0.90
2022-11-17T05:33:37.556Z,0.70
2022-11-17T05:38:39.407Z,1.00
2022-11-17T05:43:40.700Z,1.10
2022-11-17T05:48:41.943Z,0.70
2022-11-17T05:53:43.262Z,1.23
2022-11-17T05:58:47.105Z,1.55
2022-11-17T06:03:53.803Z,1.40
2022-11-17T06:08:55.759Z,1.73
2022-11-17T06:13:57.032Z,1.30
2022-11-17T06:19:15.814Z,1.75
2022-11-17T06:24:17.547Z,1.10
2022-11-17T06:29:19.448Z,1.60
2022-11-17T06:34:20.890Z,2.20
2022-11-17T06:39:22.132Z,1.70
2022-11-17T06:44:23.366Z,1.60
2022-11-17T06:49:24.793Z,1.83
2022-11-17T06:54:26.611Z,1.42
2022-11-17T06:59:28.022Z,1.40
2022-11-17T07:04:29.391Z,1.77
2022-11-17T07:09:30.833Z,1.25
2022-11-17T07:14:32.177Z,1.48
2022-11-17T07:19:33.634Z,1.55
2022-11-17T07:24:34.977Z,1.30
2022-11-17T07:29:36.414Z,1.10
2022-11-17T07:34:37.755Z,1.40
2022-11-17T07:39:39.179Z,1.30
2022-11-17T07:44:40.502Z,1.23
2022-11-17T07:49:41.872Z,1.48
2022-11-17T07:54:43.257Z,0.85
2022-11-17T07:59:44.592Z,1.20
2022-11-17T08:04:45.892Z,1.48
2022-11-17T08:09:47.179Z,0.95
2022-11-17T08:14:48.491Z,1.30
2022-11-17T08:19:49.852Z,0.60
2022-11-17T08:24:51.147Z,0.70
2022-11-17T08:29:52.653Z,1.20
2022-11-17T08:34:54.195Z,0.52
2022-11-17T08:39:55.715Z,1.05
2022-11-17T08:44:57.106Z,1.13
2022-11-17T08:49:58.487Z,1.10
2022-11-17T08:55:00.079Z,0.77
2022-11-17T09:00:02.207Z,1.40
2022-11-17T09:05:04.252Z,0.82
2022-11-17T09:10:06.727Z,0.90
2022-11-17T09:15:08.578Z,0.73
2022-11-17T09:20:10.493Z,1.30
2022-11-17T09:25:13.652Z,1.60
2022-11-17T09:30:15.616Z,1.38
2022-11-17T09:35:18.303Z,1.65
2022-11-17T09:40:20.891Z,0.80
2022-11-17T09:45:27.822Z,1.10
2022-11-17T09:50:34.777Z,0.75
2022-11-17T09:55:38.958Z,1.15
2022-11-17T10:00:43.375Z,1.40
2022-11-17T10:10:49.321Z,0.73
2022-11-17T10:15:57.603Z,1.13
2022-11-17T10:20:58.932Z,1.05
2022-11-17T10:26:00.319Z,1.20
2022-11-17T10:31:04.834Z,1.48
2022-11-17T10:36:14.846Z,0.90
2022-11-17T10:41:20.087Z,0.73
2022-11-17T10:46:22.222Z,0.68
2022-11-17T10:51:26.513Z,1.00
2022-11-17T10:56:29.696Z,1.35
2022-11-17T11:01:37.296Z,1.67
2022-11-17T11:06:38.591Z,1.08
2022-11-17T11:11:48.175Z,1.08
2022-11-17T11:16:50.907Z,7.70
2022-11-17T11:22:30.464Z,0.95
2022-11-17T11:27:47.781Z,1.17
2022-11-17T11:33:23.716Z,1.10
2022-11-17T11:38:37.217Z,1.27
2022-11-17T11:44:00.323Z,1.53
2022-11-17T11:49:16.452Z,0.95
2022-11-17T11:54:40.542Z,1.20
2022-11-17T11:59:50.606Z,1.70
2022-11-17T12:05:17.851Z,1.25
2022-11-17T12:10:36.154Z,1.67
2022-11-17T12:15:37.722Z,1.17
2022-11-17T12:20:39.130Z,2.83
2022-11-17T12:25:53.875Z,1.52
2022-11-17T12:31:10.122Z,1.50
2022-11-17T12:36:32.326Z,1.60
2022-11-17T12:41:48.607Z,0.80
2022-11-17T12:46:59.438Z,0.75
2022-11-17T12:52:07.823Z,1.10
2022-11-17T12:57:31.997Z,0.70
2022-11-17T13:03:10.165Z,1.17
2022-11-17T13:08:21.167Z,0.50
2022-11-17T13:13:24.272Z,0.68
2022-11-17T13:23:44.281Z,0.30
2022-11-17T13:28:46.249Z,0.30
2022-11-17T13:34:07.026Z,0.68
2022-11-17T13:39:16.856Z,0.30
2022-11-17T13:44:23.061Z,0.60
2022-11-17T13:49:32.236Z,0.80
2022-11-17T13:54:34.837Z,0.70
2022-11-17T13:59:38.392Z,0.75
2022-11-17T14:04:39.666Z,0.77
2022-11-17T14:09:40.915Z,0.70
2022-11-17T14:14:44.094Z,0.60
2022-11-17T14:19:46.620Z,0.85
2022-11-17T14:24:47.886Z,0.68
2022-11-17T14:29:49.157Z,1.27
2022-11-17T14:34:50.459Z,2.67
2022-11-17T14:39:51.788Z,1.15
2022-11-17T14:44:53.151Z,0.82
2022-11-17T14:49:54.636Z,0.77
2022-11-17T14:54:55.975Z,1.27
2022-11-17T14:59:57.413Z,0.77
2022-11-17T15:04:59.973Z,0.70
2022-11-17T15:10:01.562Z,1.42
2022-11-17T15:15:04.945Z,5.00
2022-11-17T15:20:07.092Z,1.67
2022-11-17T15:25:09.213Z,1.27
2022-11-17T15:30:10.986Z,0.65
2022-11-17T15:35:12.276Z,0.90
2022-11-17T15:40:19.036Z,1.17
2022-11-17T15:45:20.677Z,0.82
2022-11-17T15:50:22.026Z,1.00
2022-11-17T15:55:23.373Z,1.17
2022-11-17T16:00:24.648Z,1.30
2022-11-17T16:05:26.120Z,0.93
2022-11-17T16:10:27.547Z,0.90
2022-11-17T16:15:28.876Z,0.93
2022-11-17T16:20:30.170Z,1.48
2022-11-17T16:25:31.627Z,1.10
2022-11-17T16:30:35.605Z,1.00
2022-11-17T16:35:38.042Z,2.08
2022-11-17T16:40:39.880Z,1.00
2022-11-17T16:45:44.568Z,1.70
2022-11-17T16:50:46.963Z,0.88
2022-11-17T16:55:48.240Z,1.33
2022-11-17T17:00:49.546Z,0.82
2022-11-17T17:05:50.861Z,1.02
2022-11-17T17:10:52.137Z,1.35
2022-11-17T17:15:53.460Z,0.75
2022-11-17T17:20:54.730Z,1.23
2022-11-17T17:26:06.821Z,0.73
2022-11-17T17:31:08.336Z,1.17
2022-11-17T17:36:14.668Z,1.10
2022-11-17T17:41:18.579Z,2.70
2022-11-17T17:46:19.877Z,2.10
2022-11-17T17:51:25.340Z,1.33
2022-11-17T17:56:26.684Z,1.20
2022-11-17T18:01:30.403Z,1.83
2022-11-17T18:06:39.896Z,1.50
2022-11-17T18:11:49.418Z,1.80
2022-11-17T18:16:51.576Z,1.70
2022-11-17T18:21:52.911Z,1.77
2022-11-17T18:26:54.274Z,1.75
2022-11-17T18:31:55.711Z,1.50
2022-11-17T18:36:57.072Z,1.38
2022-11-17T18:41:58.338Z,1.70
2022-11-17T18:47:02.992Z,2.17
2022-11-17T18:52:05.230Z,3.28
2022-11-17T18:57:07.630Z,3.92
2022-11-17T19:02:08.907Z,2.92
2022-11-17T19:07:10.352Z,2.83
2022-11-17T19:12:12.567Z,3.60
2022-11-17T19:17:13.856Z,2.70
2022-11-17T19:22:15.138Z,4.00
2022-11-17T19:27:16.491Z,3.10
2022-11-17T19:32:17.829Z,3.83
2022-11-17T19:37:19.114Z,3.38
2022-11-17T19:42:20.439Z,3.45
2022-11-17T19:47:21.856Z,3.13
2022-11-17T19:52:23.107Z,3.25
2022-11-17T19:57:24.449Z,3.42
2022-11-17T20:02:25.735Z,3.70
2022-11-17T20:07:27.222Z,3.50
2022-11-17T20:12:28.806Z,3.85
2022-11-17T20:17:30.126Z,2.72
2022-11-17T20:22:31.793Z,3.08
2022-11-17T20:27:33.267Z,3.75
2022-11-17T20:32:35.450Z,2.92
2022-11-17T20:37:36.738Z,2.70
2022-11-17T20:42:37.998Z,2.83
2022-11-17T20:47:39.438Z,3.05
2022-11-17T20:52:40.943Z,4.30
2022-11-17T20:57:42.286Z,5.43
2022-11-17T21:02:43.606Z,4.80
2022-11-17T21:07:44.993Z,5.95
2022-11-17T21:12:46.372Z,6.20
2022-11-17T21:18:06.227Z,5.35
2022-11-17T21:23:07.487Z,4.78
2022-11-17T21:28:09.482Z,5.35
2022-11-17T21:33:10.835Z,5.40
2022-11-17T21:38:12.242Z,6.18
2022-11-17T21:43:13.524Z,5.78
2022-11-17T21:48:14.787Z,7.45
2022-11-17T21:53:16.098Z,6.65
2022-11-17T21:58:17.368Z,5.93
2022-11-17T22:03:18.647Z,5.97
2022-11-17T22:08:19.944Z,6.13
2022-11-17T22:13:21.190Z,6.60
2022-11-17T22:18:22.666Z,6.25
2022-11-17T22:23:24.042Z,6.20
2022-11-17T22:28:26.593Z,6.55
2022-11-17T22:33:28.933Z,7.60
2022-11-17T22:38:31.748Z,6.97
2022-11-17T22:43:33.435Z,7.05
2022-11-17T22:48:36.561Z,6.57
2022-11-17T22:53:38.125Z,6.93
2022-11-17T22:58:39.434Z,5.93
2022-11-17T23:03:40.742Z,7.65
2022-11-17T23:08:42.041Z,9.07
2022-11-17T23:13:43.285Z,8.57
2022-11-17T23:18:44.554Z,8.90
2022-11-17T23:23:45.811Z,8.63
2022-11-17T23:28:47.106Z,8.10
2022-11-17T23:33:48.728Z,8.35
2022-11-17T23:38:51.153Z,8.55
2022-11-17T23:43:53.924Z,9.32
2022-11-17T23:48:56.938Z,8.73
2022-11-17T23:54:00.935Z,9.57
2022-11-17T23:59:02.334Z,9.70
